createdAt,value
2023-07-30T00:02:01.042Z,67.20
2023-07-30T00:04:28.823Z,67.60
2023-07-30T00:06:56.763Z,67.30
2023-07-30T00:09:24.786Z,67.20
2023-07-30T00:11:52.690Z,67.30
2023-07-30T00:14:21.001Z,67.70
2023-07-30T00:16:48.633Z,68.00
2023-07-30T00:19:16.699Z,69.20
2023-07-30T00:21:47.989Z,67.80
2023-07-30T00:24:16.143Z,69.00
2023-07-30T00:26:44.449Z,69.30
2023-07-30T00:29:12.498Z,70.20
2023-07-30T00:32:18.284Z,69.50
2023-07-30T00:34:46.521Z,70.20
2023-07-30T00:37:14.272Z,68.30
2023-07-30T00:39:42.068Z,69.20
2023-07-30T00:42:09.786Z,68.40
2023-07-30T00:44:37.461Z,68.40
2023-07-30T00:47:05.969Z,68.60
2023-07-30T00:49:34.314Z,69.70
2023-07-30T00:52:02.568Z,69.10
2023-07-30T00:54:30.558Z,71.20
2023-07-30T00:56:58.487Z,70.80
2023-07-30T00:59:26.585Z,70.70
2023-07-30T01:01:54.832Z,69.40
2023-07-30T01:04:23.499Z,69.70
2023-07-30T01:06:51.304Z,69.80
2023-07-30T01:09:19.031Z,69.50
2023-07-30T01:11:47.208Z,69.80
2023-07-30T01:14:15.807Z,69.50
2023-07-30T01:16:43.917Z,69.80
2023-07-30T01:19:11.843Z,69.80
2023-07-30T01:21:39.885Z,69.60
2023-07-30T01:24:07.887Z,70.10
2023-07-30T01:26:55.087Z,69.90
2023-07-30T01:29:44.391Z,71.00
2023-07-30T01:32:15.040Z,72.30
2023-07-30T01:34:44.685Z,71.00
2023-07-30T01:37:15.467Z,70.50
2023-07-30T01:39:45.564Z,70.40
2023-07-30T01:42:17.398Z,70.30
2023-07-30T01:44:45.483Z,70.60
2023-07-30T01:47:13.487Z,70.30
2023-07-30T01:49:41.494Z,69.70
2023-07-30T01:52:09.213Z,68.90
2023-07-30T01:54:37.017Z,67.00
2023-07-30T01:57:05.370Z,65.60
2023-07-30T01:59:33.070Z,66.30
2023-07-30T02:02:00.813Z,66.40
2023-07-30T02:04:28.676Z,66.70
2023-07-30T02:06:56.593Z,65.90
2023-07-30T02:09:24.331Z,65.30
2023-07-30T02:11:52.694Z,65.30
2023-07-30T02:14:20.552Z,64.90
2023-07-30T02:16:48.276Z,64.40
2023-07-30T02:19:16.557Z,63.20
2023-07-30T02:21:44.461Z,63.70
2023-07-30T02:24:13.293Z,62.50
2023-07-30T02:26:41.320Z,59.90
2023-07-30T02:29:09.097Z,59.90
2023-07-30T02:31:37.148Z,61.10
2023-07-30T02:34:05.102Z,60.80
2023-07-30T02:36:33.197Z,59.00
2023-07-30T02:39:00.945Z,59.90
2023-07-30T02:41:28.653Z,60.70
2023-07-30T02:43:56.357Z,59.80
2023-07-30T02:46:24.030Z,60.70
2023-07-30T02:48:51.711Z,61.40
2023-07-30T02:51:19.321Z,61.50
2023-07-30T02:53:46.976Z,61.50
2023-07-30T02:56:14.942Z,61.50
2023-07-30T02:58:42.761Z,60.90
2023-07-30T03:01:11.101Z,61.00
2023-07-30T03:03:38.880Z,61.30
2023-07-30T03:06:06.797Z,61.00
2023-07-30T03:08:34.540Z,61.40
2023-07-30T03:11:02.437Z,61.60
2023-07-30T03:13:30.077Z,61.40
2023-07-30T03:15:57.858Z,61.20
2023-07-30T03:18:25.599Z,60.60
2023-07-30T03:20:53.256Z,60.80
2023-07-30T03:23:21.039Z,60.80
2023-07-30T03:25:48.722Z,61.40
2023-07-30T03:28:16.597Z,61.50
2023-07-30T03:30:44.341Z,61.40
2023-07-30T03:33:12.038Z,62.00
2023-07-30T03:35:39.746Z,62.50
2023-07-30T03:38:07.563Z,62.10
2023-07-30T03:40:35.243Z,62.50
2023-07-30T03:43:02.941Z,63.00
2023-07-30T03:45:30.722Z,64.00
2023-07-30T03:47:58.505Z,65.20
2023-07-30T03:50:26.323Z,65.30
2023-07-30T03:52:54.471Z,64.60
2023-07-30T03:55:22.322Z,64.90
2023-07-30T03:57:50.024Z,65.10
2023-07-30T04:00:18.158Z,66.40
2023-07-30T04:02:45.951Z,66.30
2023-07-30T04:05:15.463Z,66.60
2023-07-30T04:07:44.763Z,67.80
2023-07-30T04:10:12.496Z,68.10
2023-07-30T04:12:40.195Z,67.70
2023-07-30T04:15:08.458Z,67.40
2023-07-30T04:17:39.312Z,67.70
2023-07-30T04:20:07.603Z,67.10
2023-07-30T04:22:35.279Z,67.60
2023-07-30T04:25:03.140Z,67.10
2023-07-30T04:27:32.493Z,67.40
2023-07-30T04:30:02.049Z,67.40
2023-07-30T04:32:29.860Z,67.20
2023-07-30T04:34:57.654Z,68.70
2023-07-30T04:37:25.523Z,66.40
2023-07-30T04:39:53.210Z,67.60
2023-07-30T04:42:20.942Z,66.40
2023-07-30T04:44:48.747Z,67.40
2023-07-30T04:47:16.452Z,66.40
2023-07-30T04:49:44.246Z,68.00
2023-07-30T04:52:12.372Z,68.80
2023-07-30T04:54:40.173Z,68.50
2023-07-30T04:57:08.072Z,68.30
2023-07-30T04:59:35.872Z,69.30
2023-07-30T05:02:03.994Z,66.70
2023-07-30T05:04:31.761Z,67.00
2023-07-30T05:06:59.417Z,66.60
2023-07-30T05:09:28.064Z,66.90
2023-07-30T05:11:55.701Z,66.80
2023-07-30T05:14:25.286Z,66.20
2023-07-30T05:16:52.925Z,66.30
2023-07-30T05:19:20.660Z,65.80
2023-07-30T05:21:48.625Z,64.20
2023-07-30T05:24:16.541Z,64.50
2023-07-30T05:26:44.528Z,64.40
2023-07-30T05:29:12.424Z,64.30
2023-07-30T05:31:40.510Z,64.80
2023-07-30T05:34:08.613Z,64.50
2023-07-30T05:36:36.392Z,64.60
2023-07-30T05:39:04.447Z,64.50
2023-07-30T05:41:32.174Z,64.50
2023-07-30T05:44:00.015Z,64.60
2023-07-30T05:46:27.774Z,64.40
2023-07-30T05:48:55.521Z,65.00
2023-07-30T05:51:23.491Z,64.90
2023-07-30T05:53:51.408Z,64.80
2023-07-30T05:56:20.524Z,65.30
2023-07-30T05:58:48.485Z,66.00
2023-07-30T06:01:16.544Z,65.80
2023-07-30T06:03:44.470Z,66.20
2023-07-30T06:06:12.374Z,66.00
2023-07-30T06:08:39.996Z,65.80
2023-07-30T06:11:07.764Z,65.40
2023-07-30T06:13:35.587Z,65.80
2023-07-30T06:16:03.638Z,65.60
2023-07-30T06:18:31.419Z,66.20
2023-07-30T06:20:59.130Z,64.50
2023-07-30T06:23:26.730Z,64.70
2023-07-30T06:25:54.429Z,64.60
2023-07-30T06:28:22.187Z,64.00
2023-07-30T06:30:49.818Z,64.30
2023-07-30T06:33:17.698Z,63.10
2023-07-30T06:35:45.410Z,63.40
2023-07-30T06:38:13.205Z,62.90
2023-07-30T06:40:40.878Z,62.80
2023-07-30T06:43:08.547Z,62.20
2023-07-30T06:45:36.394Z,62.20
2023-07-30T06:48:04.223Z,61.60
2023-07-30T06:50:31.866Z,62.30
2023-07-30T06:52:59.530Z,61.40
2023-07-30T06:55:27.726Z,62.00
2023-07-30T06:57:55.487Z,63.50
2023-07-30T07:00:23.278Z,62.30
2023-07-30T07:02:51.721Z,61.90
2023-07-30T07:05:19.480Z,61.70
2023-07-30T07:07:47.861Z,61.20
2023-07-30T07:10:16.622Z,62.70
2023-07-30T07:12:44.445Z,61.30
2023-07-30T07:15:12.578Z,61.40
2023-07-30T07:17:41.264Z,61.60
2023-07-30T07:20:09.450Z,60.90
2023-07-30T07:22:37.101Z,60.40
2023-07-30T07:25:05.163Z,58.50
2023-07-30T07:27:32.739Z,58.30
2023-07-30T07:30:03.428Z,56.90
2023-07-30T07:32:31.162Z,58.00
2023-07-30T07:34:58.911Z,57.90
2023-07-30T07:37:26.540Z,57.50
2023-07-30T07:39:54.574Z,57.20
2023-07-30T07:42:22.106Z,57.00
2023-07-30T07:44:49.765Z,55.10
2023-07-30T07:47:17.831Z,57.00
2023-07-30T07:49:46.543Z,57.00
2023-07-30T07:52:14.561Z,56.00
2023-07-30T07:54:43.528Z,56.30
2023-07-30T07:57:11.456Z,54.50
2023-07-30T07:59:39.252Z,56.60
2023-07-30T08:02:07.587Z,55.40
2023-07-30T08:04:35.665Z,55.10
2023-07-30T08:07:05.498Z,55.10
2023-07-30T08:09:33.689Z,53.40
2023-07-30T08:12:02.707Z,55.20
2023-07-30T08:14:31.754Z,54.70
2023-07-30T08:16:59.697Z,54.20
2023-07-30T08:19:27.684Z,54.00
2023-07-30T08:21:58.051Z,53.80
2023-07-30T08:24:25.854Z,53.90
2023-07-30T08:26:53.704Z,53.50
2023-07-30T08:29:21.431Z,53.30
2023-07-30T08:31:49.535Z,51.50
2023-07-30T08:34:17.361Z,49.90
2023-07-30T08:36:45.566Z,51.00
2023-07-30T08:39:13.404Z,51.00
2023-07-30T08:41:41.622Z,50.80
2023-07-30T08:44:11.532Z,50.60
2023-07-30T08:46:40.549Z,50.40
2023-07-30T08:49:08.618Z,50.10
2023-07-30T08:51:41.271Z,50.00
2023-07-30T08:54:11.093Z,49.80
2023-07-30T08:56:38.774Z,49.90
2023-07-30T08:59:07.609Z,49.70
2023-07-30T09:01:41.214Z,47.70
2023-07-30T09:04:10.596Z,48.50
2023-07-30T09:06:40.525Z,49.50
2023-07-30T09:09:11.442Z,49.20
2023-07-30T09:11:39.775Z,48.30
2023-07-30T09:14:09.190Z,48.70
2023-07-30T09:16:37.053Z,48.30
2023-07-30T09:19:04.866Z,47.70
2023-07-30T09:21:36.958Z,46.10
2023-07-30T09:24:07.341Z,46.60
2023-07-30T09:26:54.918Z,47.40
2023-07-30T09:29:22.768Z,46.30
2023-07-30T09:31:53.015Z,47.40
2023-07-30T09:34:21.625Z,45.60
2023-07-30T09:36:54.673Z,47.70
2023-07-30T09:39:27.803Z,48.60
2023-07-30T09:42:02.509Z,49.00
2023-07-30T09:44:33.606Z,49.10
2023-07-30T09:47:07.239Z,50.20
2023-07-30T09:49:36.523Z,49.70
2023-07-30T09:52:07.041Z,49.50
2023-07-30T09:54:35.342Z,50.00
2023-07-30T09:57:03.302Z,50.10
2023-07-30T09:59:31.830Z,49.80
2023-07-30T10:02:01.943Z,49.70
2023-07-30T10:04:32.280Z,50.20
2023-07-30T10:07:11.086Z,50.60
2023-07-30T10:09:45.646Z,50.90
2023-07-30T10:12:18.046Z,50.40
2023-07-30T10:14:46.279Z,51.20
2023-07-30T10:17:14.580Z,51.40
2023-07-30T10:19:42.430Z,50.80
2023-07-30T10:22:13.655Z,52.00
2023-07-30T10:24:42.481Z,52.10
2023-07-30T10:27:14.651Z,52.30
2023-07-30T10:29:42.943Z,52.70
2023-07-30T10:32:10.965Z,52.60
2023-07-30T10:34:49.504Z,52.20
2023-07-30T10:37:20.811Z,52.60
2023-07-30T10:39:52.051Z,52.50
2023-07-30T10:42:20.787Z,52.20
2023-07-30T10:44:48.782Z,52.60
2023-07-30T10:47:30.978Z,52.10
2023-07-30T10:50:05.578Z,51.30
2023-07-30T10:52:33.421Z,51.20
2023-07-30T10:55:02.263Z,51.20
2023-07-30T10:57:33.547Z,49.90
2023-07-30T11:00:01.834Z,50.00
2023-07-30T11:02:31.295Z,50.30
2023-07-30T11:04:59.598Z,49.80
2023-07-30T11:07:27.529Z,49.80
2023-07-30T11:10:02.937Z,49.70
2023-07-30T11:12:30.802Z,49.30
2023-07-30T11:15:03.767Z,50.10
2023-07-30T11:17:32.169Z,49.10
2023-07-30T11:20:00.299Z,48.90
2023-07-30T11:22:34.518Z,49.40
2023-07-30T11:25:10.531Z,48.20
2023-07-30T11:27:52.820Z,49.80
2023-07-30T11:30:20.904Z,48.50
2023-07-30T11:32:49.056Z,48.80
2023-07-30T11:35:18.730Z,48.90
2023-07-30T11:37:46.752Z,47.50
2023-07-30T11:40:14.925Z,49.00
2023-07-30T11:42:44.616Z,48.20
2023-07-30T11:45:21.121Z,47.30
2023-07-30T11:47:50.592Z,46.70
2023-07-30T11:50:18.511Z,47.50
2023-07-30T11:53:04.564Z,48.30
2023-07-30T11:55:40.525Z,47.70
2023-07-30T11:58:09.361Z,47.80
2023-07-30T12:00:39.561Z,48.70
2023-07-30T12:03:11.054Z,47.70
2023-07-30T12:05:40.766Z,48.10
2023-07-30T12:08:16.018Z,47.90
2023-07-30T12:10:53.601Z,47.50
2023-07-30T12:13:21.805Z,47.60
2023-07-30T12:15:57.625Z,47.60
2023-07-30T12:18:26.843Z,47.10
2023-07-30T12:20:55.185Z,47.30
2023-07-30T12:23:23.491Z,47.20
2023-07-30T12:25:52.869Z,47.50
2023-07-30T12:28:20.646Z,46.80
2023-07-30T12:30:48.616Z,46.90
2023-07-30T12:33:16.611Z,46.30
2023-07-30T12:35:47.364Z,46.90
2023-07-30T12:38:16.328Z,47.30
2023-07-30T12:40:44.193Z,46.40
2023-07-30T12:43:12.147Z,47.40
2023-07-30T12:45:40.722Z,46.90
2023-07-30T12:48:09.682Z,46.40
2023-07-30T12:50:37.653Z,47.00
2023-07-30T12:53:05.495Z,47.00
2023-07-30T12:55:33.623Z,46.20
2023-07-30T12:58:01.626Z,46.80
2023-07-30T13:00:29.842Z,47.20
2023-07-30T13:02:58.962Z,45.90
2023-07-30T13:05:27.623Z,47.30
2023-07-30T13:07:55.682Z,46.80
2023-07-30T13:10:23.492Z,47.30
2023-07-30T13:12:51.766Z,46.60
2023-07-30T13:15:20.046Z,47.20
2023-07-30T13:17:48.074Z,47.50
2023-07-30T13:20:18.277Z,46.20
2023-07-30T13:22:47.609Z,45.40
2023-07-30T13:25:15.217Z,47.00
2023-07-30T13:27:43.236Z,47.50
2023-07-30T13:30:11.547Z,46.90
2023-07-30T13:32:39.513Z,46.30
2023-07-30T13:35:07.453Z,46.60
2023-07-30T13:37:35.478Z,46.60
2023-07-30T13:40:03.459Z,46.50
2023-07-30T13:42:31.188Z,46.40
2023-07-30T13:44:59.051Z,45.10
2023-07-30T13:47:27.032Z,45.60
2023-07-30T13:49:55.744Z,45.40
2023-07-30T13:52:23.507Z,45.60
2023-07-30T13:54:51.329Z,45.00
2023-07-30T13:57:25.852Z,45.30
2023-07-30T13:59:54.647Z,44.10
2023-07-30T14:02:22.738Z,44.90
2023-07-30T14:04:50.594Z,44.50
2023-07-30T14:07:18.850Z,44.40
2023-07-30T14:09:46.713Z,43.60
2023-07-30T14:12:14.612Z,43.40
2023-07-30T14:14:42.480Z,41.90
2023-07-30T14:17:10.690Z,43.50
2023-07-30T14:19:38.554Z,43.20
2023-07-30T14:22:06.718Z,42.50
2023-07-30T14:24:35.946Z,42.70
2023-07-30T14:27:03.798Z,42.00
2023-07-30T14:29:31.732Z,41.80
2023-07-30T14:31:59.826Z,41.90
2023-07-30T14:34:27.981Z,41.80
2023-07-30T14:36:55.858Z,41.20
2023-07-30T14:39:23.823Z,41.10
2023-07-30T14:41:51.573Z,41.70
2023-07-30T14:44:20.441Z,41.50
2023-07-30T14:46:48.483Z,40.20
2023-07-30T14:49:16.539Z,41.10
2023-07-30T14:51:44.427Z,39.10
2023-07-30T14:54:12.247Z,40.90
2023-07-30T14:56:40.359Z,41.50
2023-07-30T14:59:08.740Z,41.80
2023-07-30T15:01:36.918Z,41.50
2023-07-30T15:04:06.007Z,41.70
2023-07-30T15:06:34.203Z,41.10
2023-07-30T15:09:02.629Z,40.50
2023-07-30T15:11:30.424Z,41.20
2023-07-30T15:13:58.560Z,41.70
2023-07-30T15:16:26.506Z,42.00
2023-07-30T15:18:54.456Z,42.60
2023-07-30T15:21:22.502Z,43.20
2023-07-30T15:23:50.291Z,43.10
2023-07-30T15:26:18.394Z,43.60
2023-07-30T15:28:46.236Z,43.90
2023-07-30T15:31:15.416Z,44.10
2023-07-30T15:33:43.393Z,43.90
2023-07-30T15:36:11.572Z,43.40
2023-07-30T15:38:39.394Z,42.30
2023-07-30T15:41:07.284Z,42.80
2023-07-30T15:43:35.242Z,42.10
2023-07-30T15:46:03.582Z,42.50
2023-07-30T15:48:31.967Z,42.60
2023-07-30T15:51:04.293Z,42.50
2023-07-30T15:53:32.516Z,40.80
2023-07-30T15:56:05.034Z,42.00
2023-07-30T15:58:33.215Z,41.00
2023-07-30T16:01:13.591Z,41.20
2023-07-30T16:03:42.091Z,40.80
2023-07-30T16:06:10.318Z,41.60
2023-07-30T16:08:38.987Z,41.20
2023-07-30T16:11:13.116Z,41.70
2023-07-30T16:13:41.286Z,40.00
2023-07-30T16:16:14.643Z,41.50
2023-07-30T16:18:45.510Z,40.70
2023-07-30T16:21:13.389Z,42.10
2023-07-30T16:23:41.791Z,42.40
2023-07-30T16:26:10.412Z,42.80
2023-07-30T16:28:38.937Z,42.10
2023-07-30T16:31:06.904Z,42.50
2023-07-30T16:33:35.008Z,41.50
2023-07-30T16:36:05.624Z,41.20
2023-07-30T16:38:33.603Z,41.40
2023-07-30T16:41:04.052Z,41.20
2023-07-30T16:43:31.879Z,41.90
2023-07-30T16:46:05.115Z,41.60
2023-07-30T16:48:33.511Z,40.40
2023-07-30T16:51:01.374Z,40.80
2023-07-30T16:53:29.384Z,41.80
2023-07-30T16:55:58.135Z,41.60
2023-07-30T16:58:25.927Z,41.70
2023-07-30T17:01:02.999Z,42.90
2023-07-30T17:03:31.919Z,43.00
2023-07-30T17:06:01.607Z,43.00
2023-07-30T17:08:29.721Z,43.10
2023-07-30T17:10:58.054Z,43.10
2023-07-30T17:13:26.040Z,43.30
2023-07-30T17:15:53.927Z,44.10
2023-07-30T17:18:22.816Z,44.20
2023-07-30T17:20:58.775Z,45.20
2023-07-30T17:23:26.863Z,45.90
2023-07-30T17:26:00.511Z,46.00
2023-07-30T17:28:30.515Z,48.00
2023-07-30T17:30:58.562Z,47.10
2023-07-30T17:33:26.729Z,46.80
2023-07-30T17:35:55.034Z,48.60
2023-07-30T17:38:23.055Z,47.10
2023-07-30T17:40:54.504Z,47.20
2023-07-30T17:43:23.920Z,49.00
2023-07-30T17:45:52.183Z,47.70
2023-07-30T17:48:20.885Z,47.70
2023-07-30T17:50:49.845Z,47.80
2023-07-30T17:53:17.691Z,48.30
2023-07-30T17:55:45.689Z,48.80
2023-07-30T17:58:13.662Z,48.40
2023-07-30T18:00:45.549Z,49.30
2023-07-30T18:03:13.623Z,63.20
2023-07-30T18:05:48.788Z,55.40
2023-07-30T18:08:18.502Z,63.50
2023-07-30T18:10:49.858Z,56.60
2023-07-30T18:13:18.589Z,58.10
2023-07-30T18:16:05.619Z,58.00
2023-07-30T18:18:33.549Z,58.10
2023-07-30T18:21:01.513Z,61.30
2023-07-30T18:23:29.670Z,58.00
2023-07-30T18:25:57.710Z,58.40
2023-07-30T18:28:25.736Z,58.50
2023-07-30T18:30:53.632Z,58.70
2023-07-30T18:33:21.577Z,59.10
2023-07-30T18:35:49.568Z,58.90
2023-07-30T18:38:17.569Z,59.10
2023-07-30T18:40:45.514Z,59.60
2023-07-30T18:43:13.499Z,59.50
2023-07-30T18:45:41.535Z,59.50
2023-07-30T18:48:09.598Z,59.10
2023-07-30T18:50:38.168Z,59.10
2023-07-30T18:53:05.838Z,59.10
2023-07-30T18:55:53.485Z,59.30
2023-07-30T18:58:21.444Z,58.90
2023-07-30T19:00:51.960Z,58.90
2023-07-30T19:03:19.952Z,59.40
2023-07-30T19:06:00.744Z,59.50
2023-07-30T19:08:28.825Z,61.30
2023-07-30T19:10:56.560Z,60.50
2023-07-30T19:13:24.563Z,60.30
2023-07-30T19:15:52.444Z,59.80
2023-07-30T19:18:20.554Z,60.00
2023-07-30T19:20:48.585Z,60.30
2023-07-30T19:23:16.443Z,60.40
2023-07-30T19:25:52.463Z,60.40
2023-07-30T19:28:21.615Z,61.40
2023-07-30T19:30:49.547Z,60.60
2023-07-30T19:33:17.972Z,60.50
2023-07-30T19:35:51.183Z,60.80
2023-07-30T19:38:25.159Z,61.30
2023-07-30T19:40:56.804Z,61.40
2023-07-30T19:43:25.515Z,61.20
2023-07-30T19:45:54.607Z,61.70
2023-07-30T19:48:23.661Z,61.30
2023-07-30T19:50:53.443Z,61.40
2023-07-30T19:53:21.807Z,61.40
2023-07-30T19:55:50.068Z,61.10
2023-07-30T19:58:28.390Z,61.10
2023-07-30T20:01:01.878Z,61.40
2023-07-30T20:03:31.052Z,61.10
2023-07-30T20:06:03.631Z,60.90
2023-07-30T20:08:31.555Z,61.70
2023-07-30T20:11:00.876Z,60.90
2023-07-30T20:13:28.691Z,60.80
2023-07-30T20:15:57.104Z,60.70
2023-07-30T20:18:26.351Z,60.70
2023-07-30T20:20:54.457Z,60.80
2023-07-30T20:23:23.047Z,60.70
2023-07-30T20:25:50.748Z,60.40
2023-07-30T20:28:18.507Z,60.70
2023-07-30T20:30:46.468Z,60.80
2023-07-30T20:33:14.513Z,60.90
2023-07-30T20:35:42.314Z,61.20
2023-07-30T20:38:10.109Z,60.70
2023-07-30T20:40:37.896Z,60.90
2023-07-30T20:43:05.708Z,60.90
2023-07-30T20:45:34.236Z,61.20
2023-07-30T20:48:02.270Z,61.10
2023-07-30T20:50:30.159Z,61.20
2023-07-30T20:52:57.907Z,61.40
2023-07-30T20:55:26.511Z,61.50
2023-07-30T20:57:54.165Z,61.40
2023-07-30T21:00:21.884Z,61.60
2023-07-30T21:02:49.820Z,61.30
2023-07-30T21:05:17.875Z,61.30
2023-07-30T21:07:45.638Z,61.20
2023-07-30T21:10:13.307Z,61.30
2023-07-30T21:12:42.430Z,61.30
2023-07-30T21:15:11.922Z,61.20
2023-07-30T21:17:40.161Z,61.60
2023-07-30T21:20:08.674Z,62.20
2023-07-30T21:22:36.573Z,61.90
2023-07-30T21:25:06.086Z,62.10
2023-07-30T21:27:33.779Z,62.30
2023-07-30T21:30:02.634Z,62.40
2023-07-30T21:32:30.723Z,63.70
2023-07-30T21:34:59.534Z,62.80
2023-07-30T21:37:27.469Z,65.10
2023-07-30T21:40:02.161Z,63.50
2023-07-30T21:42:30.400Z,64.90
2023-07-30T21:44:58.580Z,63.90
2023-07-30T21:47:26.482Z,66.10
2023-07-30T21:49:54.445Z,63.80
2023-07-30T21:52:27.241Z,64.00
2023-07-30T21:54:57.563Z,64.60
2023-07-30T21:57:26.543Z,65.00
2023-07-30T21:59:54.867Z,64.60
2023-07-30T22:02:23.946Z,65.00
2023-07-30T22:04:51.848Z,67.10
2023-07-30T22:07:19.696Z,64.90
2023-07-30T22:09:47.589Z,65.00
2023-07-30T22:12:15.381Z,64.80
2023-07-30T22:14:43.036Z,65.20
2023-07-30T22:17:11.666Z,65.20
2023-07-30T22:19:39.457Z,65.20
2023-07-30T22:22:07.240Z,65.40
2023-07-30T22:24:35.213Z,65.30
2023-07-30T22:27:02.862Z,67.60
2023-07-30T22:29:31.861Z,65.40
2023-07-30T22:31:59.819Z,65.80
2023-07-30T22:34:27.624Z,65.90
2023-07-30T22:36:55.281Z,65.70
2023-07-30T22:39:23.004Z,65.80
2023-07-30T22:41:50.569Z,65.90
2023-07-30T22:44:18.381Z,66.00
2023-07-30T22:46:46.019Z,66.60
2023-07-30T22:49:13.624Z,66.10
2023-07-30T22:51:41.561Z,66.20
2023-07-30T22:54:09.369Z,66.30
2023-07-30T22:56:37.722Z,66.00
2023-07-30T22:59:05.999Z,66.00
2023-07-30T23:01:33.732Z,66.20
2023-07-30T23:04:01.334Z,66.40
2023-07-30T23:06:29.029Z,66.30
2023-07-30T23:08:56.632Z,66.20
2023-07-30T23:11:24.602Z,66.10
2023-07-30T23:13:52.370Z,66.10
2023-07-30T23:16:19.999Z,66.20
2023-07-30T23:18:47.911Z,66.20
2023-07-30T23:21:15.557Z,66.00
2023-07-30T23:23:44.927Z,66.00
2023-07-30T23:26:12.593Z,65.80
2023-07-30T23:28:40.560Z,66.00
2023-07-30T23:31:08.457Z,65.80
2023-07-30T23:33:36.057Z,66.00
2023-07-30T23:36:10.443Z,65.90
2023-07-30T23:38:38.523Z,66.50
2023-07-30T23:41:06.444Z,66.00
2023-07-30T23:43:34.463Z,66.40
2023-07-30T23:46:02.103Z,66.00
2023-07-30T23:48:29.873Z,66.10
2023-07-30T23:51:05.149Z,66.10
2023-07-30T23:53:33.497Z,65.90
2023-07-30T23:56:01.491Z,66.20
2023-07-30T23:58:29.508Z,66.20
